Time;durP1;ratioP1;P1;durP2;ratioP2;P2;SDS_P1;SDS_P2;PMS_P1;PMS_P2;Temp;Humidity;BMP_temperature;BMP_pressure;BME280_temperature;BME280_humidity;BME280_pressure;Samples;Min_cycle;Max_cycle;Signal;HPM_P1;HPM_P2
2020/12/06 00:01:08;;;;;;;;;;;27.40;40.10;;;;;;5096406;28;20033;-64
2020/12/06 00:03:36;;;;;;;;;;;27.40;40.70;;;;;;5096510;28;19908;-56
2020/12/06 00:06:05;;;;;;;;;;;27.40;40.10;;;;;;5096376;28;19927;-61
2020/12/06 00:08:30;;;;;;;;;;;27.40;40.10;;;;;;5095961;28;20005;-62
2020/12/06 00:10:56;;;;;;;;;;;27.40;40.70;;;;;;5092759;28;20377;-61
2020/12/06 00:13:22;;;;;;;;;;;27.40;40.10;;;;;;5095966;28;20423;-60
2020/12/06 00:15:48;;;;;;;;;;;27.40;40.10;;;;;;5096011;28;19908;-59
2020/12/06 00:18:13;;;;;;;;;;;27.50;40.00;;;;;;5088427;28;19913;-60
2020/12/06 00:20:39;;;;;;;;;;;27.50;39.90;;;;;;5089789;28;19908;-62
2020/12/06 00:23:04;;;;;;;;;;;27.50;40.00;;;;;;5095217;28;19915;-57
2020/12/06 00:25:30;;;;;;;;;;;27.50;40.20;;;;;;5089619;28;20297;-58
2020/12/06 00:27:55;;;;;;;;;;;27.30;40.20;;;;;;5102067;28;19962;-57
2020/12/06 00:30:20;;;;;;;;;;;27.40;40.10;;;;;;5103676;28;19943;-62
2020/12/06 00:32:46;;;;;;;;;;;27.40;40.00;;;;;;5106496;28;19919;-62
2020/12/06 00:35:11;;;;;;;;;;;27.40;40.10;;;;;;5115539;28;20007;-61
2020/12/06 00:37:39;;;;;;;;;;;27.50;40.10;;;;;;5116015;28;19912;-62
2020/12/06 00:40:05;;;;;;;;;;;27.50;40.00;;;;;;5114704;28;19931;-62
2020/12/06 00:42:30;;;;;;;;;;;27.50;40.00;;;;;;5095661;28;20346;-56
2020/12/06 00:44:56;;;;;;;;;;;27.40;40.00;;;;;;5094557;28;19919;-61
2020/12/06 00:47:21;;;;;;;;;;;27.40;40.10;;;;;;5095607;28;19915;-60
2020/12/06 00:49:47;;;;;;;;;;;27.40;40.00;;;;;;5095361;28;20381;-54
2020/12/06 00:52:12;;;;;;;;;;;27.40;40.10;;;;;;5095161;28;19920;-62
2020/12/06 00:54:38;;;;;;;;;;;27.40;40.10;;;;;;5095413;28;19912;-61
2020/12/06 00:57:03;;;;;;;;;;;27.40;40.10;;;;;;5095662;28;20377;-63
2020/12/06 00:59:29;;;;;;;;;;;27.40;40.00;;;;;;5106903;28;19918;-62
2020/12/06 01:01:54;;;;;;;;;;;27.40;40.00;;;;;;5095184;28;19915;-63
2020/12/06 01:04:20;;;;;;;;;;;27.50;40.00;;;;;;5094876;28;20430;-62
2020/12/06 01:06:45;;;;;;;;;;;27.50;39.90;;;;;;5095157;28;19940;-60
2020/12/06 01:09:10;;;;;;;;;;;27.50;39.80;;;;;;5094873;28;19934;-63
2020/12/06 01:11:36;;;;;;;;;;;27.50;39.90;;;;;;5094939;28;20008;-62
2020/12/06 01:14:01;;;;;;;;;;;27.50;39.80;;;;;;5088979;28;20008;-60
2020/12/06 01:16:27;;;;;;;;;;;27.50;39.70;;;;;;5074827;28;19947;-61
2020/12/06 01:18:52;;;;;;;;;;;27.50;39.90;;;;;;5074623;28;19951;-59
2020/12/06 01:21:18;;;;;;;;;;;27.50;39.90;;;;;;5074304;28;20381;-59
2020/12/06 01:23:43;;;;;;;;;;;27.50;39.80;;;;;;5091015;28;19920;-61
2020/12/06 01:26:09;;;;;;;;;;;27.50;39.90;;;;;;5094839;28;20262;-58
2020/12/06 01:28:35;;;;;;;;;;;27.40;40.00;;;;;;5094834;28;19953;-59
2020/12/06 01:31:00;;;;;;;;;;;27.40;39.90;;;;;;5094412;28;19920;-61
2020/12/06 01:33:26;;;;;;;;;;;27.40;40.00;;;;;;5112263;28;19912;-53
2020/12/06 01:35:51;;;;;;;;;;;27.40;40.10;;;;;;5076359;28;19912;-57
2020/12/06 01:38:16;;;;;;;;;;;27.50;39.90;;;;;;5074310;28;20386;-53
2020/12/06 01:40:42;;;;;;;;;;;27.50;40.00;;;;;;5073984;28;19912;-57
2020/12/06 01:43:08;;;;;;;;;;;27.50;39.80;;;;;;5073853;28;19916;-60
2020/12/06 01:45:33;;;;;;;;;;;27.50;39.90;;;;;;5073214;28;19919;-62
2020/12/06 01:47:59;;;;;;;;;;;27.50;39.80;;;;;;5073908;28;20330;-59
2020/12/06 01:50:25;;;;;;;;;;;27.50;39.80;;;;;;5073106;28;19924;-53
2020/12/06 01:52:50;;;;;;;;;;;27.50;39.90;;;;;;5073758;28;20267;-56
2020/12/06 01:55:15;;;;;;;;;;;27.50;40.00;;;;;;5073698;28;20405;-59
2020/12/06 01:57:41;;;;;;;;;;;27.50;39.80;;;;;;5072306;28;19953;-57
2020/12/06 02:00:07;;;;;;;;;;;27.50;39.80;;;;;;5073837;28;19916;-58
2020/12/06 02:02:35;;;;;;;;;;;27.50;40.00;;;;;;5073462;28;19915;-60
2020/12/06 02:05:02;;;;;;;;;;;27.50;40.10;;;;;;5089157;28;19915;-60
2020/12/06 02:07:27;;;;;;;;;;;27.40;40.10;;;;;;5093505;28;19920;-57
2020/12/06 02:09:53;;;;;;;;;;;27.40;40.30;;;;;;5094033;28;19997;-59
2020/12/06 02:12:18;;;;;;;;;;;27.30;40.80;;;;;;5093571;28;19963;-59
2020/12/06 02:14:44;;;;;;;;;;;27.30;40.90;;;;;;5093210;28;19937;-51
2020/12/06 02:17:09;;;;;;;;;;;27.20;41.00;;;;;;5094005;28;20267;-58
2020/12/06 02:19:35;;;;;;;;;;;27.30;40.80;;;;;;5092679;28;19953;-59
2020/12/06 02:22:00;;;;;;;;;;;27.30;40.60;;;;;;5093454;28;19914;-57
2020/12/06 02:24:26;;;;;;;;;;;27.40;40.30;;;;;;5093673;28;20388;-58
2020/12/06 02:26:51;;;;;;;;;;;27.40;40.30;;;;;;5093744;28;19908;-57
2020/12/06 02:29:17;;;;;;;;;;;27.40;40.40;;;;;;5080733;28;19912;-56
2020/12/06 02:31:42;;;;;;;;;;;27.40;40.30;;;;;;5082411;28;19916;-63
2020/12/06 02:34:08;;;;;;;;;;;27.50;40.10;;;;;;5113875;28;19908;-61
2020/12/06 02:36:34;;;;;;;;;;;27.50;40.00;;;;;;5113848;28;19915;-60
2020/12/06 02:38:59;;;;;;;;;;;27.50;40.10;;;;;;5113372;28;19912;-59
2020/12/06 02:41:37;;;;;;;;;;;27.50;40.10;;;;;;5095781;28;19920;-60
2020/12/06 02:44:03;;;;;;;;;;;27.50;40.10;;;;;;5093441;28;19931;-60
2020/12/06 02:46:28;;;;;;;;;;;27.60;40.00;;;;;;5093239;28;20374;-58
2020/12/06 02:48:54;;;;;;;;;;;27.60;40.00;;;;;;5093163;28;20358;-55
2020/12/06 02:51:19;;;;;;;;;;;27.50;40.00;;;;;;5092655;28;20458;-58
2020/12/06 02:53:45;;;;;;;;;;;27.50;40.00;;;;;;5092558;28;19944;-64
2020/12/06 02:56:10;;;;;;;;;;;27.60;40.00;;;;;;5076850;28;19919;-50
2020/12/06 02:58:36;;;;;;;;;;;27.60;40.00;;;;;;5072868;28;19939;-59
2020/12/06 03:01:01;;;;;;;;;;;27.60;40.00;;;;;;5073029;28;19909;-50
2020/12/06 03:03:27;;;;;;;;;;;27.50;40.70;;;;;;5072620;28;20383;-64
2020/12/06 03:05:52;;;;;;;;;;;27.40;40.30;;;;;;5072987;28;19962;-64
2020/12/06 03:08:17;;;;;;;;;;;27.40;40.30;;;;;;5072647;28;20337;-65
2020/12/06 03:10:43;;;;;;;;;;;27.50;40.10;;;;;;5086980;28;19920;-69
2020/12/06 03:13:08;;;;;;;;;;;27.50;40.10;;;;;;5092992;28;19908;-68
2020/12/06 03:15:34;;;;;;;;;;;27.50;40.20;;;;;;5093098;28;19908;-62
2020/12/06 03:17:59;;;;;;;;;;;27.50;40.10;;;;;;5092952;28;20362;-61
2020/12/06 03:20:25;;;;;;;;;;;27.60;40.20;;;;;;5092651;28;19912;-68
2020/12/06 03:22:50;;;;;;;;;;;27.50;40.10;;;;;;5093102;28;19912;-63
2020/12/06 03:25:16;;;;;;;;;;;27.50;40.10;;;;;;5079629;28;20459;-65
2020/12/06 03:27:41;;;;;;;;;;;27.50;40.20;;;;;;5072245;28;19909;-60
2020/12/06 03:30:07;;;;;;;;;;;27.50;40.10;;;;;;5071625;28;19951;-52
2020/12/06 03:32:32;;;;;;;;;;;27.50;40.00;;;;;;5076307;28;19969;-51
2020/12/06 03:34:57;;;;;;;;;;;27.50;40.20;;;;;;5092981;28;20265;-50
2020/12/06 03:37:23;;;;;;;;;;;27.50;40.10;;;;;;5092695;28;19940;-49
2020/12/06 03:39:48;;;;;;;;;;;27.40;40.00;;;;;;5093046;28;19908;-50
2020/12/06 03:42:15;;;;;;;;;;;27.40;39.90;;;;;;5092735;28;19954;-52
2020/12/06 03:44:40;;;;;;;;;;;27.40;39.80;;;;;;5084958;28;19912;-53
2020/12/06 03:47:06;;;;;;;;;;;27.30;39.80;;;;;;5072439;28;19916;-51
2020/12/06 03:49:31;;;;;;;;;;;27.30;39.80;;;;;;5072779;28;19948;-52
2020/12/06 03:51:57;;;;;;;;;;;27.20;40.00;;;;;;5072227;28;19920;-51
2020/12/06 03:54:22;;;;;;;;;;;27.20;39.80;;;;;;5072573;28;19908;-51
2020/12/06 03:56:47;;;;;;;;;;;27.20;39.70;;;;;;5072296;28;20008;-52
2020/12/06 03:59:13;;;;;;;;;;;27.20;39.60;;;;;;5078031;28;19920;-51
2020/12/06 04:01:38;;;;;;;;;;;27.20;39.50;;;;;;5092716;28;20376;-52
2020/12/06 04:04:04;;;;;;;;;;;27.20;39.50;;;;;;5092717;28;19973;-51
2020/12/06 04:06:29;;;;;;;;;;;27.10;39.40;;;;;;5092239;28;19915;-51
2020/12/06 04:08:55;;;;;;;;;;;27.10;39.50;;;;;;5094307;28;20011;-51
2020/12/06 04:11:20;;;;;;;;;;;27.10;39.40;;;;;;5096289;28;20412;-51
2020/12/06 04:13:46;;;;;;;;;;;27.10;39.40;;;;;;5091848;28;19946;-51
2020/12/06 04:16:11;;;;;;;;;;;27.10;39.40;;;;;;5075695;28;19920;-52
2020/12/06 04:18:37;;;;;;;;;;;27.10;39.40;;;;;;5076047;28;19908;-52
2020/12/06 04:21:02;;;;;;;;;;;27.10;39.40;;;;;;5075581;28;20485;-51
2020/12/06 04:23:28;;;;;;;;;;;27.10;39.30;;;;;;5075547;28;19943;-52
2020/12/06 04:25:54;;;;;;;;;;;27.00;39.30;;;;;;5075703;28;19983;-52
2020/12/06 04:28:19;;;;;;;;;;;27.10;39.30;;;;;;5077862;28;19931;-51
2020/12/06 04:30:45;;;;;;;;;;;27.10;39.20;;;;;;5075942;28;19924;-52
2020/12/06 04:33:10;;;;;;;;;;;27.10;39.20;;;;;;5075426;28;19930;-51
2020/12/06 04:35:36;;;;;;;;;;;27.10;39.10;;;;;;5075342;28;19919;-51
2020/12/06 04:38:01;;;;;;;;;;;27.10;39.20;;;;;;5088808;28;20352;-51
2020/12/06 04:40:27;;;;;;;;;;;27.10;39.10;;;;;;5095847;28;19912;-53
2020/12/06 04:42:52;;;;;;;;;;;27.00;39.00;;;;;;5095491;28;19908;-52
2020/12/06 04:45:18;;;;;;;;;;;27.00;39.00;;;;;;5095722;28;19947;-52
2020/12/06 04:47:47;;;;;;;;;;;27.00;39.00;;;;;;5094138;28;19945;-51
2020/12/06 04:50:15;;;;;;;;;;;27.00;39.00;;;;;;5077178;28;19912;-52
2020/12/06 04:52:44;;;;;;;;;;;27.00;39.10;;;;;;5075291;28;19916;-52
2020/12/06 04:55:12;;;;;;;;;;;27.00;39.10;;;;;;5075259;28;19909;-52
2020/12/06 04:57:38;;;;;;;;;;;27.00;39.00;;;;;;5075255;28;20255;-50
2020/12/06 05:00:04;;;;;;;;;;;27.00;39.00;;;;;;5073693;28;19908;-49
2020/12/06 05:02:30;;;;;;;;;;;27.00;39.00;;;;;;5074710;28;19908;-50
2020/12/06 05:04:56;;;;;;;;;;;27.00;39.00;;;;;;5092223;28;19927;-51
2020/12/06 05:07:21;;;;;;;;;;;26.90;39.00;;;;;;5093671;28;19927;-49
2020/12/06 05:09:48;;;;;;;;;;;26.90;38.90;;;;;;5094012;28;19930;-50
2020/12/06 05:12:13;;;;;;;;;;;26.90;39.00;;;;;;5094807;28;20378;-50
2020/12/06 05:14:39;;;;;;;;;;;26.90;39.00;;;;;;5095128;28;19923;-51
2020/12/06 05:17:04;;;;;;;;;;;26.90;39.00;;;;;;5094709;28;19908;-50
2020/12/06 05:19:30;;;;;;;;;;;26.90;38.90;;;;;;5077826;28;19912;-49
2020/12/06 05:21:55;;;;;;;;;;;26.90;38.90;;;;;;5074749;28;19919;-49
2020/12/06 05:24:21;;;;;;;;;;;26.90;38.90;;;;;;5074293;28;19915;-50
2020/12/06 05:26:46;;;;;;;;;;;26.90;38.90;;;;;;5074398;28;19909;-50
2020/12/06 05:29:13;;;;;;;;;;;26.90;38.90;;;;;;5074639;28;19954;-50
2020/12/06 05:31:38;;;;;;;;;;;26.80;38.90;;;;;;5074195;28;19924;-52
2020/12/06 05:34:03;;;;;;;;;;;26.80;39.00;;;;;;5077253;28;19913;-52
2020/12/06 05:36:29;;;;;;;;;;;26.80;39.00;;;;;;5074082;28;19954;-49
2020/12/06 05:38:54;;;;;;;;;;;26.90;38.90;;;;;;5074454;28;19999;-50
2020/12/06 05:41:20;;;;;;;;;;;26.90;38.80;;;;;;5079463;28;20362;-51
2020/12/06 05:43:45;;;;;;;;;;;26.90;39.00;;;;;;5094260;28;19916;-50
2020/12/06 05:46:12;;;;;;;;;;;26.90;38.90;;;;;;5094284;28;19923;-50
2020/12/06 05:48:37;;;;;;;;;;;26.90;38.80;;;;;;5094521;28;19915;-51
2020/12/06 05:51:03;;;;;;;;;;;26.80;38.90;;;;;;5094428;28;19919;-51
2020/12/06 05:53:28;;;;;;;;;;;26.80;39.50;;;;;;5090671;28;19923;-52
2020/12/06 05:56:04;;;;;;;;;;;26.80;38.90;;;;;;5094320;28;19916;-51
2020/12/06 05:58:31;;;;;;;;;;;26.80;38.90;;;;;;5094350;28;19908;-51
2020/12/06 06:00:56;;;;;;;;;;;26.80;38.90;;;;;;5094126;28;19912;-51
2020/12/06 06:03:23;;;;;;;;;;;26.80;38.90;;;;;;5092703;28;20041;-51
2020/12/06 06:05:48;;;;;;;;;;;26.90;38.90;;;;;;5092875;28;19931;-51
2020/12/06 06:08:14;;;;;;;;;;;26.90;38.90;;;;;;5079943;28;19943;-51
2020/12/06 06:10:39;;;;;;;;;;;26.80;38.80;;;;;;5093811;28;19912;-51
2020/12/06 06:13:05;;;;;;;;;;;26.80;38.80;;;;;;5092614;28;19908;-51
2020/12/06 06:15:31;;;;;;;;;;;26.90;38.80;;;;;;5092721;28;19955;-51
2020/12/06 06:17:56;;;;;;;;;;;26.80;38.70;;;;;;5093967;28;19912;-51
2020/12/06 06:20:22;;;;;;;;;;;26.80;38.70;;;;;;5081398;28;19958;-51
2020/12/06 06:22:47;;;;;;;;;;;26.90;38.70;;;;;;5073745;28;19915;-50
2020/12/06 06:25:13;;;;;;;;;;;26.80;38.70;;;;;;5072022;28;19908;-51
2020/12/06 06:27:39;;;;;;;;;;;26.80;38.70;;;;;;5078453;28;19998;-50
2020/12/06 06:30:05;;;;;;;;;;;26.90;38.70;;;;;;5091788;28;19912;-53
2020/12/06 06:32:30;;;;;;;;;;;26.90;38.70;;;;;;5081721;28;19924;-50
2020/12/06 06:34:56;;;;;;;;;;;26.90;38.70;;;;;;5093678;28;20326;-51
2020/12/06 06:37:21;;;;;;;;;;;26.90;38.70;;;;;;5084097;28;19956;-52
2020/12/06 06:39:47;;;;;;;;;;;26.90;38.70;;;;;;5092146;28;20369;-51
2020/12/06 06:42:14;;;;;;;;;;;26.80;38.80;;;;;;5093298;28;19934;-51
2020/12/06 06:44:43;;;;;;;;;;;26.80;38.90;;;;;;5093176;28;20267;-52
2020/12/06 06:47:12;;;;;;;;;;;26.80;38.70;;;;;;5091783;28;20368;-51
2020/12/06 06:49:50;;;;;;;;;;;26.80;38.70;;;;;;5072909;28;19909;-54
2020/12/06 06:52:16;;;;;;;;;;;26.80;38.80;;;;;;5082044;28;19924;-51
2020/12/06 06:54:41;;;;;;;;;;;26.90;38.70;;;;;;5093359;28;19908;-52
2020/12/06 06:57:07;;;;;;;;;;;26.90;38.70;;;;;;5091843;28;20443;-51
2020/12/06 06:59:36;;;;;;;;;;;26.80;38.70;;;;;;5091784;28;19908;-51
2020/12/06 07:02:02;;;;;;;;;;;26.80;38.60;;;;;;5093211;28;20309;-52
2020/12/06 07:04:27;;;;;;;;;;;26.80;38.60;;;;;;5082835;28;20389;-52
2020/12/06 07:06:53;;;;;;;;;;;26.80;38.60;;;;;;5072743;28;19924;-55
2020/12/06 07:09:22;;;;;;;;;;;26.80;38.60;;;;;;5082082;28;19927;-52
2020/12/06 07:11:48;;;;;;;;;;;26.80;38.60;;;;;;5093153;28;19923;-52
2020/12/06 07:14:13;;;;;;;;;;;26.80;38.60;;;;;;5091704;28;20294;-51
2020/12/06 07:16:39;;;;;;;;;;;26.80;38.60;;;;;;5093212;28;20364;-52
2020/12/06 07:19:04;;;;;;;;;;;26.80;38.50;;;;;;5092867;28;19918;-52
2020/12/06 07:21:33;;;;;;;;;;;26.80;38.50;;;;;;5092938;28;19919;-52
2020/12/06 07:23:59;;;;;;;;;;;26.80;38.50;;;;;;5089336;28;20353;-51
2020/12/06 07:26:25;;;;;;;;;;;26.80;38.50;;;;;;5092803;28;19912;-52
2020/12/06 07:28:50;;;;;;;;;;;26.80;38.50;;;;;;5092837;28;19912;-52
2020/12/06 07:31:16;;;;;;;;;;;26.80;38.50;;;;;;5091179;28;19933;-52
2020/12/06 07:33:42;;;;;;;;;;;26.80;38.50;;;;;;5074106;28;19913;-54
2020/12/06 07:36:07;;;;;;;;;;;26.80;38.50;;;;;;5072801;28;20358;-52
2020/12/06 07:38:34;;;;;;;;;;;26.70;38.50;;;;;;5071184;28;19958;-51
2020/12/06 07:41:02;;;;;;;;;;;26.80;38.50;;;;;;5083642;28;19919;-51
2020/12/06 07:43:27;;;;;;;;;;;26.70;38.40;;;;;;5093470;28;19908;-54
2020/12/06 07:45:53;;;;;;;;;;;26.70;38.50;;;;;;5096934;28;19908;-52
2020/12/06 07:48:21;;;;;;;;;;;26.70;38.50;;;;;;5096617;28;20342;-52
2020/12/06 07:50:47;;;;;;;;;;;26.70;38.40;;;;;;5096403;28;20400;-52
2020/12/06 07:53:12;;;;;;;;;;;26.80;38.50;;;;;;5096603;28;19908;-54
2020/12/06 07:55:41;;;;;;;;;;;26.70;38.40;;;;;;5082505;28;19912;-52
2020/12/06 07:58:14;;;;;;;;;;;26.80;38.40;;;;;;5076072;28;19923;-52
2020/12/06 08:00:39;;;;;;;;;;;26.80;38.30;;;;;;5075877;28;19909;-51
2020/12/06 08:03:05;;;;;;;;;;;26.80;38.30;;;;;;5074939;28;19915;-52
2020/12/06 08:05:35;;;;;;;;;;;26.80;38.40;;;;;;5076154;28;19913;-52
2020/12/06 08:08:02;;;;;;;;;;;26.80;38.50;;;;;;5075833;28;19928;-51
2020/12/06 08:10:27;;;;;;;;;;;26.70;38.30;;;;;;5088745;28;20403;-52
2020/12/06 08:12:53;;;;;;;;;;;26.70;39.00;;;;;;5096373;28;19934;-51
2020/12/06 08:15:21;;;;;;;;;;;26.70;38.40;;;;;;5096340;28;19916;-52
2020/12/06 08:17:47;;;;;;;;;;;26.70;38.30;;;;;;5094717;28;19916;-52
2020/12/06 08:20:13;;;;;;;;;;;26.70;38.30;;;;;;5096008;28;19908;-52
2020/12/06 08:22:52;;;;;;;;;;;26.80;38.40;;;;;;5095857;28;19909;-51
2020/12/06 08:25:19;;;;;;;;;;;26.70;38.40;;;;;;5080432;28;19912;-51
2020/12/06 08:27:45;;;;;;;;;;;26.70;38.30;;;;;;5083626;28;19919;-53
2020/12/06 08:30:14;;;;;;;;;;;26.70;38.30;;;;;;5096024;28;19908;-52
2020/12/06 08:32:39;;;;;;;;;;;26.70;38.30;;;;;;5096018;28;19916;-51
2020/12/06 08:35:05;;;;;;;;;;;26.70;38.30;;;;;;5095567;28;20251;-52
2020/12/06 08:37:34;;;;;;;;;;;26.70;38.30;;;;;;5095922;28;19986;-52
2020/12/06 08:40:03;;;;;;;;;;;26.70;38.40;;;;;;5095845;28;20041;-51
2020/12/06 08:42:28;;;;;;;;;;;26.70;38.40;;;;;;5087988;28;19912;-52
2020/12/06 08:44:56;;;;;;;;;;;26.70;38.30;;;;;;5075215;28;20333;-54
2020/12/06 08:47:22;;;;;;;;;;;26.70;38.30;;;;;;5075541;28;20598;-54
2020/12/06 08:49:47;;;;;;;;;;;26.70;38.30;;;;;;5075094;28;19935;-52
2020/12/06 08:52:21;;;;;;;;;;;26.70;38.20;;;;;;5077716;28;20029;-53
2020/12/06 08:54:48;;;;;;;;;;;26.80;38.30;;;;;;5074949;28;19999;-52
2020/12/06 08:57:14;;;;;;;;;;;26.70;38.30;;;;;;5075339;28;19908;-54
2020/12/06 08:59:40;;;;;;;;;;;26.70;38.20;;;;;;5075236;28;19908;-51
2020/12/06 09:02:05;;;;;;;;;;;26.70;38.20;;;;;;5078999;28;20427;-53
2020/12/06 09:04:31;;;;;;;;;;;26.70;38.20;;;;;;5094997;28;19914;-52
2020/12/06 09:06:57;;;;;;;;;;;26.70;38.30;;;;;;5095145;28;19920;-52
2020/12/06 09:09:22;;;;;;;;;;;26.70;38.20;;;;;;5094985;28;19919;-54
2020/12/06 09:11:51;;;;;;;;;;;26.70;38.20;;;;;;5094957;28;19916;-53
2020/12/06 09:14:17;;;;;;;;;;;26.70;38.20;;;;;;5095207;28;19915;-52
2020/12/06 09:16:42;;;;;;;;;;;26.60;38.30;;;;;;5092190;28;19916;-53
2020/12/06 09:19:08;;;;;;;;;;;26.70;38.30;;;;;;5074870;28;20428;-53
2020/12/06 09:21:33;;;;;;;;;;;26.70;38.30;;;;;;5074519;28;19955;-53
2020/12/06 09:23:59;;;;;;;;;;;26.70;38.30;;;;;;5074570;28;19908;-51
2020/12/06 09:26:24;;;;;;;;;;;26.70;38.30;;;;;;5074727;28;20322;-51
2020/12/06 09:28:50;;;;;;;;;;;26.70;38.20;;;;;;5074693;28;19908;-52
2020/12/06 09:31:15;;;;;;;;;;;26.70;38.30;;;;;;5074968;28;20374;-51
2020/12/06 09:33:41;;;;;;;;;;;26.70;38.30;;;;;;5094476;28;19914;-51
2020/12/06 09:36:06;;;;;;;;;;;26.70;38.20;;;;;;5094722;28;19988;-52
2020/12/06 09:38:32;;;;;;;;;;;26.70;38.20;;;;;;5094488;28;20269;-52
2020/12/06 09:40:57;;;;;;;;;;;26.70;38.20;;;;;;5094693;28;19912;-51
2020/12/06 09:43:23;;;;;;;;;;;26.70;38.20;;;;;;5094353;28;20381;-51
2020/12/06 09:45:48;;;;;;;;;;;26.70;38.20;;;;;;5094413;28;19931;-51
2020/12/06 09:48:14;;;;;;;;;;;26.70;38.20;;;;;;5074605;28;20294;-51
2020/12/06 09:50:40;;;;;;;;;;;26.70;38.10;;;;;;5074160;28;20010;-51
2020/12/06 09:53:05;;;;;;;;;;;26.70;38.20;;;;;;5074120;28;20033;-51
2020/12/06 09:55:31;;;;;;;;;;;26.70;38.20;;;;;;5084267;28;19948;-52
2020/12/06 09:57:56;;;;;;;;;;;26.70;38.20;;;;;;5094110;28;19912;-52
2020/12/06 10:00:21;;;;;;;;;;;26.70;38.10;;;;;;5094198;28;19915;-51
2020/12/06 10:02:47;;;;;;;;;;;26.70;38.00;;;;;;5093903;28;19908;-52
2020/12/06 10:05:12;;;;;;;;;;;26.70;38.00;;;;;;5094158;28;20282;-51
2020/12/06 10:07:38;;;;;;;;;;;26.70;38.10;;;;;;5092359;28;20152;-52
2020/12/06 10:10:04;;;;;;;;;;;26.70;38.10;;;;;;5085648;28;19940;-53
2020/12/06 10:12:30;;;;;;;;;;;26.70;38.10;;;;;;5073383;28;20271;-51
2020/12/06 10:14:55;;;;;;;;;;;26.70;38.00;;;;;;5073746;28;19991;-52
2020/12/06 10:17:20;;;;;;;;;;;26.70;38.00;;;;;;5073396;28;19913;-55
2020/12/06 10:19:46;;;;;;;;;;;26.70;38.00;;;;;;5073707;28;19912;-52
2020/12/06 10:22:11;;;;;;;;;;;26.60;38.10;;;;;;5073697;28;20360;-52
2020/12/06 10:24:37;;;;;;;;;;;26.70;38.10;;;;;;5075661;28;19912;-52
2020/12/06 10:27:02;;;;;;;;;;;26.60;38.10;;;;;;5073250;28;19908;-52
2020/12/06 10:29:28;;;;;;;;;;;26.60;38.20;;;;;;5073584;28;19908;-51
2020/12/06 10:31:53;;;;;;;;;;;26.60;38.10;;;;;;5073073;28;20418;-52
2020/12/06 10:34:19;;;;;;;;;;;26.60;38.10;;;;;;5073494;28;19916;-52
2020/12/06 10:36:51;;;;;;;;;;;26.70;38.20;;;;;;5073311;28;20279;-51
2020/12/06 10:39:17;;;;;;;;;;;26.70;38.20;;;;;;5078448;28;19916;-52
2020/12/06 10:41:42;;;;;;;;;;;26.70;38.10;;;;;;5093482;28;20290;-53
2020/12/06 10:44:08;;;;;;;;;;;26.70;38.00;;;;;;5093523;28;19916;-51
2020/12/06 10:46:33;;;;;;;;;;;26.70;38.10;;;;;;5093208;28;19909;-51
2020/12/06 10:48:59;;;;;;;;;;;26.70;38.00;;;;;;5093579;28;19916;-51
2020/12/06 10:51:24;;;;;;;;;;;26.70;38.00;;;;;;5091485;28;20001;-51
2020/12/06 10:53:50;;;;;;;;;;;26.70;38.00;;;;;;5093312;28;19923;-52
2020/12/06 10:56:19;;;;;;;;;;;26.70;38.00;;;;;;5093063;28;19912;-53
2020/12/06 10:58:44;;;;;;;;;;;26.60;38.10;;;;;;5093420;28;20034;-53
2020/12/06 11:01:10;;;;;;;;;;;26.60;38.10;;;;;;5080177;28;20427;-51
2020/12/06 11:03:35;;;;;;;;;;;26.70;38.20;;;;;;5072762;28;19912;-52
2020/12/06 11:06:01;;;;;;;;;;;26.60;38.10;;;;;;5073142;28;19947;-51
2020/12/06 11:08:26;;;;;;;;;;;26.60;38.10;;;;;;5072635;28;19924;-51
2020/12/06 11:10:52;;;;;;;;;;;26.60;38.20;;;;;;5073095;28;19916;-51
2020/12/06 11:13:17;;;;;;;;;;;26.60;38.10;;;;;;5088220;28;19962;-51
2020/12/06 11:15:42;;;;;;;;;;;26.70;38.10;;;;;;5093189;28;19954;-51
2020/12/06 11:18:08;;;;;;;;;;;26.60;38.10;;;;;;5093695;28;19926;-52
2020/12/06 11:20:34;;;;;;;;;;;26.60;38.10;;;;;;5097018;28;19961;-51
2020/12/06 11:22:59;;;;;;;;;;;26.60;38.10;;;;;;5097342;28;19923;-51
2020/12/06 11:25:24;;;;;;;;;;;26.70;38.10;;;;;;5096958;28;19919;-51
2020/12/06 11:27:50;;;;;;;;;;;26.60;38.10;;;;;;5097285;28;19912;-55
2020/12/06 11:30:15;;;;;;;;;;;26.60;38.10;;;;;;5096884;28;19912;-52
2020/12/06 11:32:41;;;;;;;;;;;26.60;38.20;;;;;;5083625;28;19920;-53
2020/12/06 11:35:06;;;;;;;;;;;26.60;38.10;;;;;;5076820;28;19913;-52
2020/12/06 11:37:32;;;;;;;;;;;26.60;38.10;;;;;;5076556;28;19916;-52
2020/12/06 11:39:57;;;;;;;;;;;26.70;38.10;;;;;;5084805;28;19919;-52
2020/12/06 11:42:23;;;;;;;;;;;26.70;38.10;;;;;;5096871;28;19908;-53
2020/12/06 11:44:48;;;;;;;;;;;26.60;38.10;;;;;;5096512;28;20273;-52
2020/12/06 11:47:14;;;;;;;;;;;26.70;38.10;;;;;;5096599;28;19908;-52
2020/12/06 11:49:39;;;;;;;;;;;26.70;38.20;;;;;;5096862;28;19908;-52
2020/12/06 11:52:08;;;;;;;;;;;26.70;38.20;;;;;;5093298;28;20350;-51
2020/12/06 11:54:34;;;;;;;;;;;26.70;38.10;;;;;;5096449;28;20476;-53
2020/12/06 11:56:59;;;;;;;;;;;26.70;38.10;;;;;;5096676;28;19908;-52
2020/12/06 11:59:25;;;;;;;;;;;26.60;38.10;;;;;;5096300;28;19914;-51
2020/12/06 12:01:51;;;;;;;;;;;26.60;38.10;;;;;;5077193;28;19916;-53
2020/12/06 12:04:16;;;;;;;;;;;26.70;38.10;;;;;;5075908;28;19917;-52
2020/12/06 12:06:42;;;;;;;;;;;26.70;38.10;;;;;;5075942;28;19919;-53
2020/12/06 12:09:08;;;;;;;;;;;26.70;38.10;;;;;;5076157;28;20397;-51
2020/12/06 12:11:33;;;;;;;;;;;26.70;38.00;;;;;;5076065;28;19927;-55
2020/12/06 12:13:59;;;;;;;;;;;26.70;38.10;;;;;;5080254;28;20380;-51
2020/12/06 12:16:24;;;;;;;;;;;26.70;38.00;;;;;;5096221;28;19965;-52
2020/12/06 12:18:50;;;;;;;;;;;26.70;38.10;;;;;;5096389;28;19911;-52
2020/12/06 12:21:15;;;;;;;;;;;26.70;38.10;;;;;;5095908;28;19923;-51
2020/12/06 12:23:41;;;;;;;;;;;26.70;38.10;;;;;;5096120;28;19962;-51
2020/12/06 12:26:06;;;;;;;;;;;26.70;38.00;;;;;;5096207;28;20003;-52
2020/12/06 12:28:32;;;;;;;;;;;26.70;38.00;;;;;;5092882;28;19912;-51
2020/12/06 12:30:57;;;;;;;;;;;26.70;38.10;;;;;;5075232;28;20255;-51
2020/12/06 12:33:23;;;;;;;;;;;26.70;38.00;;;;;;5075535;28;19908;-52
2020/12/06 12:35:49;;;;;;;;;;;26.70;38.00;;;;;;5075624;28;19909;-51
2020/12/06 12:38:14;;;;;;;;;;;26.70;38.00;;;;;;5077501;28;19995;-51
2020/12/06 12:40:40;;;;;;;;;;;26.60;38.00;;;;;;5095869;28;20003;-51
2020/12/06 12:43:06;;;;;;;;;;;26.70;38.10;;;;;;5095794;28;19908;-51
2020/12/06 12:45:31;;;;;;;;;;;26.60;38.00;;;;;;5095849;28;19912;-51
2020/12/06 12:47:57;;;;;;;;;;;26.60;38.10;;;;;;5095807;28;20381;-53
2020/12/06 12:50:22;;;;;;;;;;;26.60;38.00;;;;;;5095659;28;20290;-52
2020/12/06 12:52:49;;;;;;;;;;;26.70;38.00;;;;;;5095188;28;20354;-51
2020/12/06 12:55:16;;;;;;;;;;;26.60;38.00;;;;;;5075438;28;20002;-51
2020/12/06 12:57:42;;;;;;;;;;;26.60;38.10;;;;;;5075100;28;19908;-52
2020/12/06 13:00:07;;;;;;;;;;;26.60;38.10;;;;;;5075249;28;19936;-52
2020/12/06 13:02:33;;;;;;;;;;;26.60;38.00;;;;;;5079675;28;19959;-52
2020/12/06 13:04:59;;;;;;;;;;;26.60;38.00;;;;;;5075166;28;19934;-52
2020/12/06 13:07:24;;;;;;;;;;;26.60;37.90;;;;;;5074682;28;19920;-52
2020/12/06 13:09:50;;;;;;;;;;;26.70;37.90;;;;;;5075090;28;19999;-52
2020/12/06 13:12:15;;;;;;;;;;;26.70;37.90;;;;;;5074579;28;19966;-51
2020/12/06 13:14:41;;;;;;;;;;;26.70;38.00;;;;;;5074942;28;19962;-52
2020/12/06 13:17:07;;;;;;;;;;;26.70;37.90;;;;;;5077442;28;20374;-53
2020/12/06 13:19:32;;;;;;;;;;;26.60;37.90;;;;;;5095128;28;19957;-53
2020/12/06 13:21:58;;;;;;;;;;;26.70;37.90;;;;;;5094841;28;19908;-54
2020/12/06 13:24:23;;;;;;;;;;;26.60;37.90;;;;;;5094677;28;19990;-52
2020/12/06 13:26:50;;;;;;;;;;;26.60;37.90;;;;;;5094961;28;19994;-53
2020/12/06 13:29:15;;;;;;;;;;;26.60;38.00;;;;;;5094654;28;19908;-52
2020/12/06 13:31:41;;;;;;;;;;;26.60;37.90;;;;;;5091053;28;19927;-52
2020/12/06 13:34:06;;;;;;;;;;;26.60;37.90;;;;;;5074544;28;20460;-52
2020/12/06 13:36:32;;;;;;;;;;;26.60;37.90;;;;;;5074196;28;19927;-52
2020/12/06 13:38:57;;;;;;;;;;;26.70;38.00;;;;;;5074784;28;19912;-52
2020/12/06 13:41:25;;;;;;;;;;;26.70;37.90;;;;;;5073913;28;19908;-52
2020/12/06 13:43:51;;;;;;;;;;;26.60;37.90;;;;;;5094624;28;19908;-52
2020/12/06 13:46:20;;;;;;;;;;;26.60;37.90;;;;;;5089878;28;19923;-52
2020/12/06 13:48:45;;;;;;;;;;;26.70;37.90;;;;;;5073891;28;19995;-53
2020/12/06 13:51:12;;;;;;;;;;;26.60;37.80;;;;;;5072642;28;20000;-51
2020/12/06 13:53:38;;;;;;;;;;;26.60;37.90;;;;;;5073926;28;19934;-53
2020/12/06 13:56:03;;;;;;;;;;;26.60;37.90;;;;;;5074070;28;20350;-52
2020/12/06 13:58:29;;;;;;;;;;;26.60;37.90;;;;;;5073852;28;19913;-55
2020/12/06 14:00:56;;;;;;;;;;;26.70;37.90;;;;;;5076601;28;19912;-52
2020/12/06 14:03:22;;;;;;;;;;;26.60;37.80;;;;;;5087205;28;19913;-52
2020/12/06 14:05:47;;;;;;;;;;;26.60;37.90;;;;;;5073964;28;19915;-52
2020/12/06 14:08:13;;;;;;;;;;;26.60;37.90;;;;;;5073459;28;20294;-52